sensor_id;sensor_type;location;lat;lon;timestamp;pressure;altitude;pressure_sealevel;temperature
9119;BMP180;4594;50.994;7.126;2022-10-16T00:00:36;100152.00;;;19.70
9119;BMP180;4594;50.994;7.126;2022-10-16T00:03:04;100215.00;;;19.70
9119;BMP180;4594;50.994;7.126;2022-10-16T00:05:31;100186.00;;;19.60
9119;BMP180;4594;50.994;7.126;2022-10-16T00:07:57;100234.00;;;19.70
9119;BMP180;4594;50.994;7.126;2022-10-16T00:10:24;100262.00;;;19.50
9119;BMP180;4594;50.994;7.126;2022-10-16T00:12:50;100188.00;;;19.70
9119;BMP180;4594;50.994;7.126;2022-10-16T00:15:16;100176.00;;;19.70
9119;BMP180;4594;50.994;7.126;2022-10-16T00:17:45;100210.00;;;19.70
9119;BMP180;4594;50.994;7.126;2022-10-16T00:20:11;100231.00;;;19.60
9119;BMP180;4594;50.994;7.126;2022-10-16T00:22:37;100265.00;;;19.60
9119;BMP180;4594;50.994;7.126;2022-10-16T00:25:04;100219.00;;;19.70
9119;BMP180;4594;50.994;7.126;2022-10-16T00:27:30;100260.00;;;19.60
9119;BMP180;4594;50.994;7.126;2022-10-16T00:29:56;100240.00;;;19.70
9119;BMP180;4594;50.994;7.126;2022-10-16T00:32:22;100259.00;;;19.70
9119;BMP180;4594;50.994;7.126;2022-10-16T00:34:48;100206.00;;;19.60
9119;BMP180;4594;50.994;7.126;2022-10-16T00:37:14;100294.00;;;19.50
9119;BMP180;4594;50.994;7.126;2022-10-16T00:39:40;100216.00;;;19.60
9119;BMP180;4594;50.994;7.126;2022-10-16T00:42:06;100198.00;;;19.60
9119;BMP180;4594;50.994;7.126;2022-10-16T00:45:02;100224.00;;;19.50
9119;BMP180;4594;50.994;7.126;2022-10-16T00:47:40;100270.00;;;19.50
9119;BMP180;4594;50.994;7.126;2022-10-16T00:50:13;100181.00;;;19.30
9119;BMP180;4594;50.994;7.126;2022-10-16T00:52:46;100270.00;;;19.40
9119;BMP180;4594;50.994;7.126;2022-10-16T00:55:14;100247.00;;;19.40
9119;BMP180;4594;50.994;7.126;2022-10-16T00:57:41;100215.00;;;19.40
9119;BMP180;4594;50.994;7.126;2022-10-16T01:00:11;100260.00;;;19.40
9119;BMP180;4594;50.994;7.126;2022-10-16T01:02:37;100263.00;;;19.30
9119;BMP180;4594;50.994;7.126;2022-10-16T01:05:05;100221.00;;;19.10
9119;BMP180;4594;50.994;7.126;2022-10-16T01:08:00;100255.00;;;19.20
9119;BMP180;4594;50.994;7.126;2022-10-16T01:10:52;100252.00;;;19.20
9119;BMP180;4594;50.994;7.126;2022-10-16T01:13:36;100239.00;;;19.20
9119;BMP180;4594;50.994;7.126;2022-10-16T01:16:23;100246.00;;;19.10
9119;BMP180;4594;50.994;7.126;2022-10-16T01:19:48;100246.00;;;19.10
9119;BMP180;4594;50.994;7.126;2022-10-16T01:21:48;100255.00;;;19.00
9119;BMP180;4594;50.994;7.126;2022-10-16T01:24:32;100257.00;;;19.00
9119;BMP180;4594;50.994;7.126;2022-10-16T01:27:06;100261.00;;;19.00
9119;BMP180;4594;50.994;7.126;2022-10-16T01:32:29;100252.00;;;18.90
9119;BMP180;4594;50.994;7.126;2022-10-16T01:35:17;100261.00;;;18.90
9119;BMP180;4594;50.994;7.126;2022-10-16T01:37:51;100256.00;;;18.90
9119;BMP180;4594;50.994;7.126;2022-10-16T01:40:24;100259.00;;;18.90
9119;BMP180;4594;50.994;7.126;2022-10-16T01:43:11;100247.00;;;18.90
9119;BMP180;4594;50.994;7.126;2022-10-16T01:45:39;100253.00;;;18.90
9119;BMP180;4594;50.994;7.126;2022-10-16T01:48:07;100259.00;;;18.90
9119;BMP180;4594;50.994;7.126;2022-10-16T01:50:39;100269.00;;;18.80
9119;BMP180;4594;50.994;7.126;2022-10-16T01:53:11;100264.00;;;18.80
9119;BMP180;4594;50.994;7.126;2022-10-16T01:55:42;100260.00;;;18.80
9119;BMP180;4594;50.994;7.126;2022-10-16T01:58:13;100264.00;;;18.80
9119;BMP180;4594;50.994;7.126;2022-10-16T02:00:43;100263.00;;;18.70
9119;BMP180;4594;50.994;7.126;2022-10-16T02:03:13;100275.00;;;18.70
9119;BMP180;4594;50.994;7.126;2022-10-16T02:05:51;100271.00;;;18.70
9119;BMP180;4594;50.994;7.126;2022-10-16T02:08:19;100275.00;;;18.60
9119;BMP180;4594;50.994;7.126;2022-10-16T02:10:44;100269.00;;;18.60
9119;BMP180;4594;50.994;7.126;2022-10-16T02:16:07;100270.00;;;18.60
9119;BMP180;4594;50.994;7.126;2022-10-16T02:18:33;100269.00;;;18.60
9119;BMP180;4594;50.994;7.126;2022-10-16T02:21:19;100278.00;;;18.70
9119;BMP180;4594;50.994;7.126;2022-10-16T02:27:40;100296.00;;;18.70
9119;BMP180;4594;50.994;7.126;2022-10-16T02:30:07;100282.00;;;18.80
9119;BMP180;4594;50.994;7.126;2022-10-16T02:32:40;100275.00;;;18.80
9119;BMP180;4594;50.994;7.126;2022-10-16T02:35:08;100276.00;;;18.90
9119;BMP180;4594;50.994;7.126;2022-10-16T02:37:35;100280.00;;;18.90
9119;BMP180;4594;50.994;7.126;2022-10-16T02:40:02;100262.00;;;18.90
9119;BMP180;4594;50.994;7.126;2022-10-16T02:42:35;100276.00;;;19.00
9119;BMP180;4594;50.994;7.126;2022-10-16T02:45:02;100275.00;;;19.00
9119;BMP180;4594;50.994;7.126;2022-10-16T02:47:29;100284.00;;;19.00
9119;BMP180;4594;50.994;7.126;2022-10-16T02:49:54;100290.00;;;19.00
9119;BMP180;4594;50.994;7.126;2022-10-16T02:52:20;100287.00;;;19.10
9119;BMP180;4594;50.994;7.126;2022-10-16T02:54:46;100282.00;;;19.10
9119;BMP180;4594;50.994;7.126;2022-10-16T02:57:11;100278.00;;;19.10
9119;BMP180;4594;50.994;7.126;2022-10-16T02:59:37;100277.00;;;19.20
9119;BMP180;4594;50.994;7.126;2022-10-16T03:02:03;100278.00;;;19.20
9119;BMP180;4594;50.994;7.126;2022-10-16T03:04:29;100290.00;;;19.20
9119;BMP180;4594;50.994;7.126;2022-10-16T03:06:55;100292.00;;;19.30
9119;BMP180;4594;50.994;7.126;2022-10-16T03:09:20;100285.00;;;19.30
9119;BMP180;4594;50.994;7.126;2022-10-16T03:11:46;100285.00;;;19.30
9119;BMP180;4594;50.994;7.126;2022-10-16T03:14:11;100290.00;;;19.40
9119;BMP180;4594;50.994;7.126;2022-10-16T03:16:37;100276.00;;;19.40
9119;BMP180;4594;50.994;7.126;2022-10-16T03:19:03;100279.00;;;19.40
9119;BMP180;4594;50.994;7.126;2022-10-16T03:21:29;100264.00;;;19.40
9119;BMP180;4594;50.994;7.126;2022-10-16T03:23:55;100259.00;;;19.40
9119;BMP180;4594;50.994;7.126;2022-10-16T03:26:20;100256.00;;;19.30
9119;BMP180;4594;50.994;7.126;2022-10-16T03:28:46;100252.00;;;19.30
9119;BMP180;4594;50.994;7.126;2022-10-16T03:31:12;100258.00;;;19.30
9119;BMP180;4594;50.994;7.126;2022-10-16T03:33:38;100259.00;;;19.30
9119;BMP180;4594;50.994;7.126;2022-10-16T03:36:03;100268.00;;;19.30
9119;BMP180;4594;50.994;7.126;2022-10-16T03:38:29;100276.00;;;19.30
9119;BMP180;4594;50.994;7.126;2022-10-16T03:40:55;100268.00;;;19.30
9119;BMP180;4594;50.994;7.126;2022-10-16T03:43:20;100269.00;;;19.30
9119;BMP180;4594;50.994;7.126;2022-10-16T03:45:46;100271.00;;;19.30
9119;BMP180;4594;50.994;7.126;2022-10-16T03:48:12;100274.00;;;19.30
9119;BMP180;4594;50.994;7.126;2022-10-16T03:50:37;100282.00;;;19.30
9119;BMP180;4594;50.994;7.126;2022-10-16T03:53:03;100286.00;;;19.30
9119;BMP180;4594;50.994;7.126;2022-10-16T03:55:29;100288.00;;;19.40
9119;BMP180;4594;50.994;7.126;2022-10-16T03:57:55;100289.00;;;19.40
9119;BMP180;4594;50.994;7.126;2022-10-16T04:00:21;100292.00;;;19.40
9119;BMP180;4594;50.994;7.126;2022-10-16T04:02:46;100302.00;;;19.40
9119;BMP180;4594;50.994;7.126;2022-10-16T04:05:12;100309.00;;;19.40
9119;BMP180;4594;50.994;7.126;2022-10-16T04:07:37;100321.00;;;19.40
9119;BMP180;4594;50.994;7.126;2022-10-16T04:10:04;100312.00;;;19.40
9119;BMP180;4594;50.994;7.126;2022-10-16T04:12:30;100314.00;;;19.40
9119;BMP180;4594;50.994;7.126;2022-10-16T04:14:55;100307.00;;;19.40
9119;BMP180;4594;50.994;7.126;2022-10-16T04:17:21;100307.00;;;19.40
9119;BMP180;4594;50.994;7.126;2022-10-16T04:19:47;100310.00;;;19.40
9119;BMP180;4594;50.994;7.126;2022-10-16T04:22:13;100315.00;;;19.40
9119;BMP180;4594;50.994;7.126;2022-10-16T04:24:39;100315.00;;;19.40
9119;BMP180;4594;50.994;7.126;2022-10-16T04:27:04;100310.00;;;19.50
9119;BMP180;4594;50.994;7.126;2022-10-16T04:29:30;100314.00;;;19.50
9119;BMP180;4594;50.994;7.126;2022-10-16T04:31:55;100338.00;;;19.50
9119;BMP180;4594;50.994;7.126;2022-10-16T04:34:21;100326.00;;;19.50
9119;BMP180;4594;50.994;7.126;2022-10-16T04:36:48;100330.00;;;19.50
9119;BMP180;4594;50.994;7.126;2022-10-16T04:39:15;100334.00;;;19.50
9119;BMP180;4594;50.994;7.126;2022-10-16T04:41:41;100334.00;;;19.40
9119;BMP180;4594;50.994;7.126;2022-10-16T04:44:07;100335.00;;;19.40
9119;BMP180;4594;50.994;7.126;2022-10-16T04:46:32;100331.00;;;19.40
9119;BMP180;4594;50.994;7.126;2022-10-16T04:48:58;100347.00;;;19.40
9119;BMP180;4594;50.994;7.126;2022-10-16T04:51:24;100348.00;;;19.40
9119;BMP180;4594;50.994;7.126;2022-10-16T04:53:51;100347.00;;;19.40
9119;BMP180;4594;50.994;7.126;2022-10-16T04:56:16;100339.00;;;19.30
9119;BMP180;4594;50.994;7.126;2022-10-16T04:58:42;100330.00;;;19.30
9119;BMP180;4594;50.994;7.126;2022-10-16T05:01:08;100344.00;;;19.30
9119;BMP180;4594;50.994;7.126;2022-10-16T05:03:34;100347.00;;;19.30
9119;BMP180;4594;50.994;7.126;2022-10-16T05:06:00;100353.00;;;19.30
9119;BMP180;4594;50.994;7.126;2022-10-16T05:08:25;100351.00;;;19.20
9119;BMP180;4594;50.994;7.126;2022-10-16T05:10:51;100355.00;;;19.20
9119;BMP180;4594;50.994;7.126;2022-10-16T05:13:16;100361.00;;;19.20
9119;BMP180;4594;50.994;7.126;2022-10-16T05:15:46;100360.00;;;19.20
9119;BMP180;4594;50.994;7.126;2022-10-16T05:18:12;100360.00;;;19.20
9119;BMP180;4594;50.994;7.126;2022-10-16T05:20:38;100366.00;;;19.20
9119;BMP180;4594;50.994;7.126;2022-10-16T05:23:03;100357.00;;;19.20
9119;BMP180;4594;50.994;7.126;2022-10-16T05:25:29;100357.00;;;19.20
9119;BMP180;4594;50.994;7.126;2022-10-16T05:27:54;100374.00;;;19.20
9119;BMP180;4594;50.994;7.126;2022-10-16T05:30:20;100376.00;;;19.20
9119;BMP180;4594;50.994;7.126;2022-10-16T05:32:50;100369.00;;;19.20
9119;BMP180;4594;50.994;7.126;2022-10-16T05:35:18;100376.00;;;19.20
9119;BMP180;4594;50.994;7.126;2022-10-16T05:37:44;100385.00;;;19.30
9119;BMP180;4594;50.994;7.126;2022-10-16T05:40:11;100380.00;;;19.30
9119;BMP180;4594;50.994;7.126;2022-10-16T05:42:37;100380.00;;;19.30
9119;BMP180;4594;50.994;7.126;2022-10-16T05:45:05;100383.00;;;19.30
9119;BMP180;4594;50.994;7.126;2022-10-16T05:47:30;100395.00;;;19.30
9119;BMP180;4594;50.994;7.126;2022-10-16T05:49:56;100392.00;;;19.30
9119;BMP180;4594;50.994;7.126;2022-10-16T05:52:22;100378.00;;;19.30
9119;BMP180;4594;50.994;7.126;2022-10-16T05:54:47;100381.00;;;19.30
9119;BMP180;4594;50.994;7.126;2022-10-16T05:57:13;100389.00;;;19.30
9119;BMP180;4594;50.994;7.126;2022-10-16T05:59:39;100400.00;;;19.30
9119;BMP180;4594;50.994;7.126;2022-10-16T06:02:05;100390.00;;;19.20
9119;BMP180;4594;50.994;7.126;2022-10-16T06:04:30;100416.00;;;19.20
9119;BMP180;4594;50.994;7.126;2022-10-16T06:06:58;100415.00;;;19.20
9119;BMP180;4594;50.994;7.126;2022-10-16T06:09:26;100413.00;;;19.10
9119;BMP180;4594;50.994;7.126;2022-10-16T06:11:51;100411.00;;;19.10
9119;BMP180;4594;50.994;7.126;2022-10-16T06:14:17;100420.00;;;19.10
9119;BMP180;4594;50.994;7.126;2022-10-16T06:16:43;100420.00;;;19.10
9119;BMP180;4594;50.994;7.126;2022-10-16T06:19:08;100426.00;;;19.00
9119;BMP180;4594;50.994;7.126;2022-10-16T06:21:34;100437.00;;;19.00
9119;BMP180;4594;50.994;7.126;2022-10-16T06:24:00;100440.00;;;19.00
9119;BMP180;4594;50.994;7.126;2022-10-16T06:26:29;100443.00;;;19.00
9119;BMP180;4594;50.994;7.126;2022-10-16T06:28:58;100435.00;;;19.00
9119;BMP180;4594;50.994;7.126;2022-10-16T06:31:24;100429.00;;;19.00
9119;BMP180;4594;50.994;7.126;2022-10-16T06:33:57;100422.00;;;19.00
9119;BMP180;4594;50.994;7.126;2022-10-16T06:36:24;100424.00;;;19.00
9119;BMP180;4594;50.994;7.126;2022-10-16T06:38:50;100436.00;;;19.10
9119;BMP180;4594;50.994;7.126;2022-10-16T06:41:20;100444.00;;;19.10
9119;BMP180;4594;50.994;7.126;2022-10-16T06:43:46;100449.00;;;19.20
9119;BMP180;4594;50.994;7.126;2022-10-16T06:46:16;100468.00;;;19.20
9119;BMP180;4594;50.994;7.126;2022-10-16T06:48:42;100467.00;;;19.30
9119;BMP180;4594;50.994;7.126;2022-10-16T06:51:13;100470.00;;;19.40
9119;BMP180;4594;50.994;7.126;2022-10-16T06:53:49;100478.00;;;19.50
9119;BMP180;4594;50.994;7.126;2022-10-16T06:56:24;100482.00;;;19.60
9119;BMP180;4594;50.994;7.126;2022-10-16T06:58:51;100482.00;;;19.70
9119;BMP180;4594;50.994;7.126;2022-10-16T07:01:20;100486.00;;;19.80
9119;BMP180;4594;50.994;7.126;2022-10-16T07:03:47;100485.00;;;19.90
9119;BMP180;4594;50.994;7.126;2022-10-16T07:06:16;100499.00;;;20.00
9119;BMP180;4594;50.994;7.126;2022-10-16T07:08:45;100505.00;;;20.10
9119;BMP180;4594;50.994;7.126;2022-10-16T07:11:15;100510.00;;;20.20
9119;BMP180;4594;50.994;7.126;2022-10-16T07:13:44;100512.00;;;20.30
9119;BMP180;4594;50.994;7.126;2022-10-16T07:16:13;100510.00;;;20.40
9119;BMP180;4594;50.994;7.126;2022-10-16T07:18:40;100499.00;;;20.50
9119;BMP180;4594;50.994;7.126;2022-10-16T07:21:14;100509.00;;;20.60
9119;BMP180;4594;50.994;7.126;2022-10-16T07:23:40;100519.00;;;20.70
9119;BMP180;4594;50.994;7.126;2022-10-16T07:26:07;100531.00;;;21.10
9119;BMP180;4594;50.994;7.126;2022-10-16T07:28:34;100542.00;;;21.40
9119;BMP180;4594;50.994;7.126;2022-10-16T07:31:10;100536.00;;;21.60
9119;BMP180;4594;50.994;7.126;2022-10-16T07:33:37;100545.00;;;21.60
9119;BMP180;4594;50.994;7.126;2022-10-16T07:36:04;100547.00;;;21.70
9119;BMP180;4594;50.994;7.126;2022-10-16T07:38:30;100551.00;;;21.80
9119;BMP180;4594;50.994;7.126;2022-10-16T07:41:01;100554.00;;;21.90
9119;BMP180;4594;50.994;7.126;2022-10-16T07:43:27;100563.00;;;22.00
9119;BMP180;4594;50.994;7.126;2022-10-16T07:45:54;100564.00;;;22.10
9119;BMP180;4594;50.994;7.126;2022-10-16T07:48:22;100565.00;;;22.20
9119;BMP180;4594;50.994;7.126;2022-10-16T07:50:48;100560.00;;;22.40
9119;BMP180;4594;50.994;7.126;2022-10-16T07:53:15;100555.00;;;22.50
9119;BMP180;4594;50.994;7.126;2022-10-16T07:55:41;100573.00;;;22.70
9119;BMP180;4594;50.994;7.126;2022-10-16T07:58:07;100577.00;;;22.80
9119;BMP180;4594;50.994;7.126;2022-10-16T08:00:33;100574.00;;;23.10
9119;BMP180;4594;50.994;7.126;2022-10-16T08:02:59;100586.00;;;23.60
9119;BMP180;4594;50.994;7.126;2022-10-16T08:05:30;100591.00;;;24.20
9119;BMP180;4594;50.994;7.126;2022-10-16T08:07:56;100596.00;;;24.70
9119;BMP180;4594;50.994;7.126;2022-10-16T08:10:25;100583.00;;;25.10
9119;BMP180;4594;50.994;7.126;2022-10-16T08:12:52;100606.00;;;25.50
9119;BMP180;4594;50.994;7.126;2022-10-16T08:15:19;100602.00;;;26.00
9119;BMP180;4594;50.994;7.126;2022-10-16T08:17:59;100606.00;;;26.80
9119;BMP180;4594;50.994;7.126;2022-10-16T08:20:27;100599.00;;;27.30
9119;BMP180;4594;50.994;7.126;2022-10-16T08:22:53;100596.00;;;28.00
9119;BMP180;4594;50.994;7.126;2022-10-16T08:25:21;100614.00;;;28.70
9119;BMP180;4594;50.994;7.126;2022-10-16T08:27:47;100612.00;;;29.50
9119;BMP180;4594;50.994;7.126;2022-10-16T08:30:13;100625.00;;;30.30
9119;BMP180;4594;50.994;7.126;2022-10-16T08:32:39;100620.00;;;31.10
9119;BMP180;4594;50.994;7.126;2022-10-16T08:35:08;100618.00;;;31.80
9119;BMP180;4594;50.994;7.126;2022-10-16T08:37:34;100630.00;;;32.40
9119;BMP180;4594;50.994;7.126;2022-10-16T08:40:00;100638.00;;;33.00
9119;BMP180;4594;50.994;7.126;2022-10-16T08:42:50;100651.00;;;33.20
9119;BMP180;4594;50.994;7.126;2022-10-16T08:45:43;100652.00;;;33.20
9119;BMP180;4594;50.994;7.126;2022-10-16T08:48:46;100645.00;;;33.30
9119;BMP180;4594;50.994;7.126;2022-10-16T08:51:35;100644.00;;;33.50
9119;BMP180;4594;50.994;7.126;2022-10-16T08:54:05;100646.00;;;34.00
9119;BMP180;4594;50.994;7.126;2022-10-16T08:56:31;100650.00;;;34.50
9119;BMP180;4594;50.994;7.126;2022-10-16T08:58:59;100650.00;;;34.90
9119;BMP180;4594;50.994;7.126;2022-10-16T09:01:40;100652.00;;;35.20
9119;BMP180;4594;50.994;7.126;2022-10-16T09:07:15;100661.00;;;36.10
9119;BMP180;4594;50.994;7.126;2022-10-16T09:16:04;100669.00;;;37.80
9119;BMP180;4594;50.994;7.126;2022-10-16T09:19:20;100676.00;;;38.50
9119;BMP180;4594;50.994;7.126;2022-10-16T09:21:48;100673.00;;;39.00
9119;BMP180;4594;50.994;7.126;2022-10-16T09:24:16;100680.00;;;39.40
9119;BMP180;4594;50.994;7.126;2022-10-16T09:26:43;100676.00;;;39.70
9119;BMP180;4594;50.994;7.126;2022-10-16T09:29:13;100672.00;;;40.00
9119;BMP180;4594;50.994;7.126;2022-10-16T09:31:39;100663.00;;;40.30
9119;BMP180;4594;50.994;7.126;2022-10-16T09:34:15;100662.00;;;40.70
9119;BMP180;4594;50.994;7.126;2022-10-16T09:36:46;100669.00;;;41.20
9119;BMP180;4594;50.994;7.126;2022-10-16T09:39:12;100673.00;;;41.70
9119;BMP180;4594;50.994;7.126;2022-10-16T09:41:41;100680.00;;;42.00
9119;BMP180;4594;50.994;7.126;2022-10-16T09:44:30;100690.00;;;42.40
9119;BMP180;4594;50.994;7.126;2022-10-16T09:47:21;100686.00;;;42.80
9119;BMP180;4594;50.994;7.126;2022-10-16T09:50:19;100670.00;;;43.10
9119;BMP180;4594;50.994;7.126;2022-10-16T09:52:45;100684.00;;;43.50
9119;BMP180;4594;50.994;7.126;2022-10-16T09:55:17;100690.00;;;43.80
9119;BMP180;4594;50.994;7.126;2022-10-16T09:57:54;100693.00;;;44.10
9119;BMP180;4594;50.994;7.126;2022-10-16T10:00:22;100694.00;;;44.40
9119;BMP180;4594;50.994;7.126;2022-10-16T10:02:49;100698.00;;;44.50
9119;BMP180;4594;50.994;7.126;2022-10-16T10:05:26;100710.00;;;44.60
9119;BMP180;4594;50.994;7.126;2022-10-16T10:08:01;100703.00;;;44.50
9119;BMP180;4594;50.994;7.126;2022-10-16T10:10:33;100704.00;;;44.30
9119;BMP180;4594;50.994;7.126;2022-10-16T10:13:00;100704.00;;;43.90
9119;BMP180;4594;50.994;7.126;2022-10-16T10:15:33;100702.00;;;43.60
9119;BMP180;4594;50.994;7.126;2022-10-16T10:18:00;100694.00;;;43.40
9119;BMP180;4594;50.994;7.126;2022-10-16T10:20:34;100702.00;;;43.10
9119;BMP180;4594;50.994;7.126;2022-10-16T10:23:22;100698.00;;;42.80
9119;BMP180;4594;50.994;7.126;2022-10-16T10:26:07;100699.00;;;42.30
9119;BMP180;4594;50.994;7.126;2022-10-16T10:28:54;100707.00;;;41.20
9119;BMP180;4594;50.994;7.126;2022-10-16T10:31:32;100703.00;;;40.20
9119;BMP180;4594;50.994;7.126;2022-10-16T10:43:31;100716.00;;;36.70
9119;BMP180;4594;50.994;7.126;2022-10-16T10:46:05;100719.00;;;36.10
9119;BMP180;4594;50.994;7.126;2022-10-16T10:57:21;100722.00;;;34.00
9119;BMP180;4594;50.994;7.126;2022-10-16T11:06:08;100713.00;;;32.80
9119;BMP180;4594;50.994;7.126;2022-10-16T11:08:45;100715.00;;;32.30
9119;BMP180;4594;50.994;7.126;2022-10-16T11:14:10;100714.00;;;31.60
9119;BMP180;4594;50.994;7.126;2022-10-16T11:16:56;100726.00;;;31.30
9119;BMP180;4594;50.994;7.126;2022-10-16T11:19:56;100727.00;;;31.00
9119;BMP180;4594;50.994;7.126;2022-10-16T11:22:33;100730.00;;;30.80
9119;BMP180;4594;50.994;7.126;2022-10-16T11:25:30;100723.00;;;30.60
9119;BMP180;4594;50.994;7.126;2022-10-16T11:28:24;100728.00;;;30.40
9119;BMP180;4594;50.994;7.126;2022-10-16T11:31:46;100720.00;;;30.40
9119;BMP180;4594;50.994;7.126;2022-10-16T11:36:58;100720.00;;;30.30
9119;BMP180;4594;50.994;7.126;2022-10-16T11:39:29;100730.00;;;30.30
9119;BMP180;4594;50.994;7.126;2022-10-16T11:44:38;100738.00;;;30.20
9119;BMP180;4594;50.994;7.126;2022-10-16T11:49:50;100737.00;;;29.70
9119;BMP180;4594;50.994;7.126;2022-10-16T11:52:31;100742.00;;;29.50
9119;BMP180;4594;50.994;7.126;2022-10-16T11:55:34;100743.00;;;29.30
9119;BMP180;4594;50.994;7.126;2022-10-16T11:58:19;100739.00;;;29.20
9119;BMP180;4594;50.994;7.126;2022-10-16T12:06:52;100740.00;;;28.90
9119;BMP180;4594;50.994;7.126;2022-10-16T12:09:31;100739.00;;;28.90
9119;BMP180;4594;50.994;7.126;2022-10-16T12:11:58;100738.00;;;28.80
9119;BMP180;4594;50.994;7.126;2022-10-16T12:17:26;100757.00;;;28.50
9119;BMP180;4594;50.994;7.126;2022-10-16T12:25:27;100754.00;;;28.10
9119;BMP180;4594;50.994;7.126;2022-10-16T12:27:56;100741.00;;;28.00
9119;BMP180;4594;50.994;7.126;2022-10-16T12:30:26;100746.00;;;27.90
9119;BMP180;4594;50.994;7.126;2022-10-16T12:33:05;100746.00;;;27.80
9119;BMP180;4594;50.994;7.126;2022-10-16T12:35:43;100745.00;;;27.80
9119;BMP180;4594;50.994;7.126;2022-10-16T12:38:25;100742.00;;;27.70
9119;BMP180;4594;50.994;7.126;2022-10-16T12:41:02;100736.00;;;27.70
9119;BMP180;4594;50.994;7.126;2022-10-16T12:43:46;100739.00;;;27.60
9119;BMP180;4594;50.994;7.126;2022-10-16T12:48:41;100723.00;;;27.50
9119;BMP180;4594;50.994;7.126;2022-10-16T12:54:19;100720.00;;;27.30
9119;BMP180;4594;50.994;7.126;2022-10-16T12:57:25;100723.00;;;27.20
9119;BMP180;4594;50.994;7.126;2022-10-16T13:00:28;100729.00;;;27.10
9119;BMP180;4594;50.994;7.126;2022-10-16T13:12:31;100725.00;;;27.10
9119;BMP180;4594;50.994;7.126;2022-10-16T13:15:58;100728.00;;;27.10
9119;BMP180;4594;50.994;7.126;2022-10-16T13:18:40;100719.00;;;27.10
9119;BMP180;4594;50.994;7.126;2022-10-16T13:30:15;100736.00;;;27.20
9119;BMP180;4594;50.994;7.126;2022-10-16T13:32:46;100729.00;;;27.10
9119;BMP180;4594;50.994;7.126;2022-10-16T13:35:29;100737.00;;;27.10
9119;BMP180;4594;50.994;7.126;2022-10-16T13:38:20;100728.00;;;27.00
9119;BMP180;4594;50.994;7.126;2022-10-16T13:41:14;100739.00;;;26.90
9119;BMP180;4594;50.994;7.126;2022-10-16T13:43:52;100743.00;;;26.90
9119;BMP180;4594;50.994;7.126;2022-10-16T13:46:23;100739.00;;;26.90
9119;BMP180;4594;50.994;7.126;2022-10-16T13:49:01;100754.00;;;26.90
9119;BMP180;4594;50.994;7.126;2022-10-16T13:51:29;100753.00;;;26.90
9119;BMP180;4594;50.994;7.126;2022-10-16T13:53:56;100754.00;;;26.90
9119;BMP180;4594;50.994;7.126;2022-10-16T13:56:26;100760.00;;;26.90
9119;BMP180;4594;50.994;7.126;2022-10-16T13:59:21;100739.00;;;26.80
9119;BMP180;4594;50.994;7.126;2022-10-16T14:01:49;100738.00;;;26.70
9119;BMP180;4594;50.994;7.126;2022-10-16T14:04:16;100726.00;;;26.70
9119;BMP180;4594;50.994;7.126;2022-10-16T14:06:46;100733.00;;;26.60
9119;BMP180;4594;50.994;7.126;2022-10-16T14:09:29;100732.00;;;26.50
9119;BMP180;4594;50.994;7.126;2022-10-16T14:12:10;100730.00;;;26.50
9119;BMP180;4594;50.994;7.126;2022-10-16T14:14:50;100734.00;;;26.50
9119;BMP180;4594;50.994;7.126;2022-10-16T14:17:22;100729.00;;;26.40
9119;BMP180;4594;50.994;7.126;2022-10-16T14:19:54;100742.00;;;26.40
9119;BMP180;4594;50.994;7.126;2022-10-16T14:22:33;100752.00;;;26.30
9119;BMP180;4594;50.994;7.126;2022-10-16T14:25:02;100740.00;;;26.20
9119;BMP180;4594;50.994;7.126;2022-10-16T14:27:35;100734.00;;;26.20
9119;BMP180;4594;50.994;7.126;2022-10-16T14:30:21;100737.00;;;26.20
9119;BMP180;4594;50.994;7.126;2022-10-16T14:33:06;100733.00;;;26.10
9119;BMP180;4594;50.994;7.126;2022-10-16T14:35:39;100725.00;;;25.90
9119;BMP180;4594;50.994;7.126;2022-10-16T14:38:19;100718.00;;;25.80
9119;BMP180;4594;50.994;7.126;2022-10-16T14:40:48;100719.00;;;25.70
9119;BMP180;4594;50.994;7.126;2022-10-16T14:43:22;100713.00;;;25.70
9119;BMP180;4594;50.994;7.126;2022-10-16T14:45:55;100717.00;;;25.60
9119;BMP180;4594;50.994;7.126;2022-10-16T14:48:21;100725.00;;;25.50
9119;BMP180;4594;50.994;7.126;2022-10-16T14:50:48;100723.00;;;25.50
9119;BMP180;4594;50.994;7.126;2022-10-16T14:53:14;100706.00;;;25.40
9119;BMP180;4594;50.994;7.126;2022-10-16T14:55:41;100713.00;;;25.40
9119;BMP180;4594;50.994;7.126;2022-10-16T14:58:25;100724.00;;;25.30
9119;BMP180;4594;50.994;7.126;2022-10-16T15:00:51;100723.00;;;25.30
9119;BMP180;4594;50.994;7.126;2022-10-16T15:03:17;100726.00;;;25.20
9119;BMP180;4594;50.994;7.126;2022-10-16T15:05:43;100729.00;;;25.20
9119;BMP180;4594;50.994;7.126;2022-10-16T15:08:09;100740.00;;;25.10
9119;BMP180;4594;50.994;7.126;2022-10-16T15:10:41;100736.00;;;25.10
9119;BMP180;4594;50.994;7.126;2022-10-16T15:13:12;100741.00;;;25.00
9119;BMP180;4594;50.994;7.126;2022-10-16T15:15:45;100731.00;;;25.00
9119;BMP180;4594;50.994;7.126;2022-10-16T15:18:11;100731.00;;;25.00
9119;BMP180;4594;50.994;7.126;2022-10-16T15:20:40;100734.00;;;25.00
9119;BMP180;4594;50.994;7.126;2022-10-16T15:23:24;100729.00;;;24.90
9119;BMP180;4594;50.994;7.126;2022-10-16T15:25:55;100737.00;;;24.90
9119;BMP180;4594;50.994;7.126;2022-10-16T15:28:23;100754.00;;;24.90
9119;BMP180;4594;50.994;7.126;2022-10-16T15:30:52;100740.00;;;24.90
9119;BMP180;4594;50.994;7.126;2022-10-16T15:33:23;100751.00;;;24.80
9119;BMP180;4594;50.994;7.126;2022-10-16T15:35:51;100749.00;;;24.80
9119;BMP180;4594;50.994;7.126;2022-10-16T15:38:19;100745.00;;;24.80
9119;BMP180;4594;50.994;7.126;2022-10-16T15:40:48;100740.00;;;24.80
9119;BMP180;4594;50.994;7.126;2022-10-16T15:43:14;100747.00;;;24.80
9119;BMP180;4594;50.994;7.126;2022-10-16T15:45:40;100741.00;;;24.80
9119;BMP180;4594;50.994;7.126;2022-10-16T15:48:10;100724.00;;;24.70
9119;BMP180;4594;50.994;7.126;2022-10-16T15:50:37;100732.00;;;24.60
9119;BMP180;4594;50.994;7.126;2022-10-16T15:53:04;100723.00;;;24.60
9119;BMP180;4594;50.994;7.126;2022-10-16T15:55:29;100730.00;;;24.60
9119;BMP180;4594;50.994;7.126;2022-10-16T15:57:55;100735.00;;;24.50
9119;BMP180;4594;50.994;7.126;2022-10-16T16:00:21;100734.00;;;24.50
9119;BMP180;4594;50.994;7.126;2022-10-16T16:02:52;100740.00;;;24.50
9119;BMP180;4594;50.994;7.126;2022-10-16T16:05:20;100726.00;;;24.50
9119;BMP180;4594;50.994;7.126;2022-10-16T16:07:46;100737.00;;;24.40
9119;BMP180;4594;50.994;7.126;2022-10-16T16:10:13;100733.00;;;24.40
9119;BMP180;4594;50.994;7.126;2022-10-16T16:12:39;100728.00;;;24.30
9119;BMP180;4594;50.994;7.126;2022-10-16T16:15:07;100722.00;;;24.20
9119;BMP180;4594;50.994;7.126;2022-10-16T16:17:34;100723.00;;;24.20